sensor_id;sensor_type;location;lat;lon;timestamp;P1;durP1;ratioP1;P2;durP2;ratioP2
46719;SDS011;32452;51.382;-0.002;2023-08-06T00:02:30;5.32;;;2.63;;
46719;SDS011;32452;51.382;-0.002;2023-08-06T00:05:16;5.95;;;2.65;;
46719;SDS011;32452;51.382;-0.002;2023-08-06T00:08:02;4.13;;;2.22;;
46719;SDS011;32452;51.382;-0.002;2023-08-06T00:10:49;9.48;;;2.03;;
46719;SDS011;32452;51.382;-0.002;2023-08-06T00:13:34;4.85;;;2.33;;
46719;SDS011;32452;51.382;-0.002;2023-08-06T00:16:20;7.30;;;3.10;;
46719;SDS011;32452;51.382;-0.002;2023-08-06T00:19:05;5.35;;;1.88;;
46719;SDS011;32452;51.382;-0.002;2023-08-06T00:21:51;4.70;;;1.98;;
46719;SDS011;32452;51.382;-0.002;2023-08-06T00:24:37;2.75;;;1.98;;
46719;SDS011;32452;51.382;-0.002;2023-08-06T00:27:23;5.30;;;2.10;;
46719;SDS011;32452;51.382;-0.002;2023-08-06T00:30:08;9.00;;;2.80;;
46719;SDS011;32452;51.382;-0.002;2023-08-06T00:32:54;8.82;;;2.90;;
46719;SDS011;32452;51.382;-0.002;2023-08-06T00:35:40;5.93;;;2.30;;
46719;SDS011;32452;51.382;-0.002;2023-08-06T00:38:26;6.07;;;1.80;;
46719;SDS011;32452;51.382;-0.002;2023-08-06T00:41:12;4.45;;;2.00;;
46719;SDS011;32452;51.382;-0.002;2023-08-06T00:43:57;5.25;;;1.73;;
46719;SDS011;32452;51.382;-0.002;2023-08-06T00:46:43;5.88;;;2.42;;
46719;SDS011;32452;51.382;-0.002;2023-08-06T00:49:29;8.20;;;2.53;;
46719;SDS011;32452;51.382;-0.002;2023-08-06T00:52:18;6.20;;;2.33;;
46719;SDS011;32452;51.382;-0.002;2023-08-06T00:55:04;7.10;;;2.47;;
46719;SDS011;32452;51.382;-0.002;2023-08-06T00:57:50;8.75;;;2.20;;
46719;SDS011;32452;51.382;-0.002;2023-08-06T01:00:37;6.30;;;1.95;;
46719;SDS011;32452;51.382;-0.002;2023-08-06T01:03:23;6.18;;;1.90;;
46719;SDS011;32452;51.382;-0.002;2023-08-06T01:06:09;6.45;;;2.30;;
46719;SDS011;32452;51.382;-0.002;2023-08-06T01:09:01;8.63;;;2.17;;
46719;SDS011;32452;51.382;-0.002;2023-08-06T01:12:05;7.55;;;2.45;;
46719;SDS011;32452;51.382;-0.002;2023-08-06T01:18:01;6.97;;;2.53;;
46719;SDS011;32452;51.382;-0.002;2023-08-06T01:20:47;8.65;;;2.58;;
46719;SDS011;32452;51.382;-0.002;2023-08-06T01:23:34;7.57;;;2.22;;
46719;SDS011;32452;51.382;-0.002;2023-08-06T01:31:51;7.35;;;2.65;;
46719;SDS011;32452;51.382;-0.002;2023-08-06T01:34:39;7.63;;;2.85;;
46719;SDS011;32452;51.382;-0.002;2023-08-06T01:37:26;10.90;;;2.90;;
46719;SDS011;32452;51.382;-0.002;2023-08-06T01:40:13;10.15;;;2.58;;
46719;SDS011;32452;51.382;-0.002;2023-08-06T01:42:58;5.60;;;2.42;;
46719;SDS011;32452;51.382;-0.002;2023-08-06T01:45:44;6.45;;;2.70;;
46719;SDS011;32452;51.382;-0.002;2023-08-06T01:48:30;9.40;;;2.58;;
46719;SDS011;32452;51.382;-0.002;2023-08-06T01:51:15;8.35;;;2.58;;
46719;SDS011;32452;51.382;-0.002;2023-08-06T01:54:01;10.68;;;3.25;;
46719;SDS011;32452;51.382;-0.002;2023-08-06T01:56:47;10.50;;;3.42;;
46719;SDS011;32452;51.382;-0.002;2023-08-06T01:59:32;9.15;;;3.25;;
46719;SDS011;32452;51.382;-0.002;2023-08-06T02:02:18;7.20;;;3.00;;
46719;SDS011;32452;51.382;-0.002;2023-08-06T02:05:04;9.23;;;3.00;;
46719;SDS011;32452;51.382;-0.002;2023-08-06T02:07:50;9.00;;;4.18;;
46719;SDS011;32452;51.382;-0.002;2023-08-06T02:10:36;9.93;;;3.60;;
46719;SDS011;32452;51.382;-0.002;2023-08-06T02:13:21;8.55;;;5.18;;
46719;SDS011;32452;51.382;-0.002;2023-08-06T02:16:07;11.98;;;3.72;;
46719;SDS011;32452;51.382;-0.002;2023-08-06T02:18:55;12.43;;;4.10;;
46719;SDS011;32452;51.382;-0.002;2023-08-06T02:21:41;9.63;;;3.72;;
46719;SDS011;32452;51.382;-0.002;2023-08-06T02:24:26;10.45;;;4.00;;
46719;SDS011;32452;51.382;-0.002;2023-08-06T02:27:12;12.68;;;3.45;;
46719;SDS011;32452;51.382;-0.002;2023-08-06T02:29:57;7.22;;;3.28;;
46719;SDS011;32452;51.382;-0.002;2023-08-06T02:32:43;9.23;;;3.28;;
46719;SDS011;32452;51.382;-0.002;2023-08-06T02:35:29;8.70;;;3.67;;
46719;SDS011;32452;51.382;-0.002;2023-08-06T02:38:14;8.50;;;3.97;;
46719;SDS011;32452;51.382;-0.002;2023-08-06T02:41:03;7.47;;;2.97;;
46719;SDS011;32452;51.382;-0.002;2023-08-06T02:43:49;20.23;;;4.53;;
46719;SDS011;32452;51.382;-0.002;2023-08-06T02:46:35;10.95;;;4.53;;
46719;SDS011;32452;51.382;-0.002;2023-08-06T02:49:20;10.10;;;3.50;;
46719;SDS011;32452;51.382;-0.002;2023-08-06T02:52:06;10.38;;;2.97;;
46719;SDS011;32452;51.382;-0.002;2023-08-06T02:54:52;9.57;;;3.08;;
46719;SDS011;32452;51.382;-0.002;2023-08-06T02:57:37;16.92;;;3.20;;
46719;SDS011;32452;51.382;-0.002;2023-08-06T03:00:23;12.60;;;3.15;;
46719;SDS011;32452;51.382;-0.002;2023-08-06T03:03:08;8.57;;;2.70;;
46719;SDS011;32452;51.382;-0.002;2023-08-06T03:05:54;13.30;;;3.65;;
46719;SDS011;32452;51.382;-0.002;2023-08-06T03:08:39;9.40;;;3.45;;
46719;SDS011;32452;51.382;-0.002;2023-08-06T03:11:25;7.85;;;3.03;;
46719;SDS011;32452;51.382;-0.002;2023-08-06T03:14:10;7.43;;;3.42;;
46719;SDS011;32452;51.382;-0.002;2023-08-06T03:16:56;11.13;;;3.30;;
46719;SDS011;32452;51.382;-0.002;2023-08-06T03:19:42;7.10;;;2.80;;
46719;SDS011;32452;51.382;-0.002;2023-08-06T03:22:27;10.30;;;2.83;;
46719;SDS011;32452;51.382;-0.002;2023-08-06T03:25:13;10.27;;;3.17;;
46719;SDS011;32452;51.382;-0.002;2023-08-06T03:27:59;10.25;;;3.30;;
46719;SDS011;32452;51.382;-0.002;2023-08-06T03:30:44;10.60;;;3.17;;
46719;SDS011;32452;51.382;-0.002;2023-08-06T03:33:30;11.18;;;3.25;;
46719;SDS011;32452;51.382;-0.002;2023-08-06T03:36:15;13.30;;;3.10;;
46719;SDS011;32452;51.382;-0.002;2023-08-06T03:39:01;7.68;;;2.78;;
46719;SDS011;32452;51.382;-0.002;2023-08-06T03:41:46;7.03;;;2.88;;
46719;SDS011;32452;51.382;-0.002;2023-08-06T03:44:32;11.70;;;3.53;;
46719;SDS011;32452;51.382;-0.002;2023-08-06T03:47:18;10.45;;;3.67;;
46719;SDS011;32452;51.382;-0.002;2023-08-06T03:50:04;6.65;;;3.05;;
46719;SDS011;32452;51.382;-0.002;2023-08-06T03:52:49;8.15;;;3.35;;
46719;SDS011;32452;51.382;-0.002;2023-08-06T03:55:35;6.80;;;3.10;;
46719;SDS011;32452;51.382;-0.002;2023-08-06T03:58:21;9.18;;;3.17;;
46719;SDS011;32452;51.382;-0.002;2023-08-06T04:01:07;12.02;;;4.00;;
46719;SDS011;32452;51.382;-0.002;2023-08-06T04:03:52;10.35;;;4.03;;
46719;SDS011;32452;51.382;-0.002;2023-08-06T04:06:38;10.32;;;3.03;;
46719;SDS011;32452;51.382;-0.002;2023-08-06T04:09:23;6.80;;;2.85;;
46719;SDS011;32452;51.382;-0.002;2023-08-06T04:12:09;8.88;;;3.90;;
46719;SDS011;32452;51.382;-0.002;2023-08-06T04:14:57;10.75;;;3.38;;
46719;SDS011;32452;51.382;-0.002;2023-08-06T04:17:43;8.70;;;3.28;;
46719;SDS011;32452;51.382;-0.002;2023-08-06T04:20:29;8.40;;;3.60;;
46719;SDS011;32452;51.382;-0.002;2023-08-06T04:23:14;9.27;;;3.22;;
46719;SDS011;32452;51.382;-0.002;2023-08-06T04:26:00;9.73;;;3.53;;
46719;SDS011;32452;51.382;-0.002;2023-08-06T04:28:46;11.57;;;3.83;;
46719;SDS011;32452;51.382;-0.002;2023-08-06T04:31:31;6.40;;;3.22;;
46719;SDS011;32452;51.382;-0.002;2023-08-06T04:34:17;8.88;;;3.28;;
46719;SDS011;32452;51.382;-0.002;2023-08-06T04:37:03;8.13;;;3.50;;
46719;SDS011;32452;51.382;-0.002;2023-08-06T04:39:49;8.90;;;3.85;;
46719;SDS011;32452;51.382;-0.002;2023-08-06T04:42:35;8.15;;;3.38;;
46719;SDS011;32452;51.382;-0.002;2023-08-06T04:45:20;9.07;;;3.03;;
46719;SDS011;32452;51.382;-0.002;2023-08-06T04:48:06;7.40;;;3.55;;
46719;SDS011;32452;51.382;-0.002;2023-08-06T04:50:52;11.35;;;3.65;;
46719;SDS011;32452;51.382;-0.002;2023-08-06T04:53:37;9.85;;;3.35;;
46719;SDS011;32452;51.382;-0.002;2023-08-06T04:56:23;11.93;;;3.30;;
46719;SDS011;32452;51.382;-0.002;2023-08-06T04:59:08;10.25;;;3.28;;
46719;SDS011;32452;51.382;-0.002;2023-08-06T05:01:54;7.65;;;2.97;;
46719;SDS011;32452;51.382;-0.002;2023-08-06T05:04:40;5.93;;;3.03;;
46719;SDS011;32452;51.382;-0.002;2023-08-06T05:07:25;10.43;;;3.42;;
46719;SDS011;32452;51.382;-0.002;2023-08-06T05:10:11;7.60;;;3.15;;
46719;SDS011;32452;51.382;-0.002;2023-08-06T05:12:57;11.05;;;3.38;;
46719;SDS011;32452;51.382;-0.002;2023-08-06T05:15:42;12.13;;;3.67;;
46719;SDS011;32452;51.382;-0.002;2023-08-06T05:18:29;7.03;;;3.33;;
46719;SDS011;32452;51.382;-0.002;2023-08-06T05:21:15;7.93;;;3.50;;
46719;SDS011;32452;51.382;-0.002;2023-08-06T05:24:01;8.52;;;3.60;;
46719;SDS011;32452;51.382;-0.002;2023-08-06T05:26:47;11.13;;;3.90;;
46719;SDS011;32452;51.382;-0.002;2023-08-06T05:29:32;8.50;;;3.75;;
46719;SDS011;32452;51.382;-0.002;2023-08-06T05:32:18;8.88;;;3.58;;
46719;SDS011;32452;51.382;-0.002;2023-08-06T05:35:04;9.63;;;3.55;;
46719;SDS011;32452;51.382;-0.002;2023-08-06T05:37:50;8.07;;;3.33;;
46719;SDS011;32452;51.382;-0.002;2023-08-06T05:40:35;11.18;;;4.03;;
46719;SDS011;32452;51.382;-0.002;2023-08-06T05:43:22;8.88;;;3.35;;
46719;SDS011;32452;51.382;-0.002;2023-08-06T05:46:07;9.40;;;3.60;;
46719;SDS011;32452;51.382;-0.002;2023-08-06T05:48:53;10.82;;;3.05;;
46719;SDS011;32452;51.382;-0.002;2023-08-06T05:51:39;8.15;;;3.13;;
46719;SDS011;32452;51.382;-0.002;2023-08-06T05:54:24;9.98;;;3.42;;
46719;SDS011;32452;51.382;-0.002;2023-08-06T05:57:10;9.02;;;3.00;;
46719;SDS011;32452;51.382;-0.002;2023-08-06T05:59:56;8.23;;;3.40;;
46719;SDS011;32452;51.382;-0.002;2023-08-06T06:02:41;4.90;;;2.47;;
46719;SDS011;32452;51.382;-0.002;2023-08-06T06:05:27;8.35;;;3.40;;
46719;SDS011;32452;51.382;-0.002;2023-08-06T06:08:12;9.90;;;3.50;;
46719;SDS011;32452;51.382;-0.002;2023-08-06T06:10:58;4.95;;;2.42;;
46719;SDS011;32452;51.382;-0.002;2023-08-06T06:13:44;9.05;;;2.83;;
46719;SDS011;32452;51.382;-0.002;2023-08-06T06:16:29;5.25;;;2.60;;
46719;SDS011;32452;51.382;-0.002;2023-08-06T06:19:15;6.30;;;2.50;;
46719;SDS011;32452;51.382;-0.002;2023-08-06T06:22:01;7.38;;;2.50;;
46719;SDS011;32452;51.382;-0.002;2023-08-06T06:24:46;6.10;;;2.42;;
46719;SDS011;32452;51.382;-0.002;2023-08-06T06:27:32;7.03;;;2.45;;
46719;SDS011;32452;51.382;-0.002;2023-08-06T06:30:18;5.28;;;2.20;;
46719;SDS011;32452;51.382;-0.002;2023-08-06T06:33:03;6.18;;;2.65;;
46719;SDS011;32452;51.382;-0.002;2023-08-06T06:35:49;6.53;;;2.58;;
46719;SDS011;32452;51.382;-0.002;2023-08-06T06:38:35;6.03;;;2.40;;
46719;SDS011;32452;51.382;-0.002;2023-08-06T06:41:21;6.22;;;2.10;;
46719;SDS011;32452;51.382;-0.002;2023-08-06T06:44:06;4.65;;;2.30;;
46719;SDS011;32452;51.382;-0.002;2023-08-06T06:46:52;6.18;;;2.30;;
46719;SDS011;32452;51.382;-0.002;2023-08-06T06:49:38;5.85;;;2.50;;
46719;SDS011;32452;51.382;-0.002;2023-08-06T06:52:23;5.60;;;2.55;;
46719;SDS011;32452;51.382;-0.002;2023-08-06T06:55:09;4.03;;;2.25;;
46719;SDS011;32452;51.382;-0.002;2023-08-06T06:57:54;4.15;;;2.17;;
46719;SDS011;32452;51.382;-0.002;2023-08-06T07:00:40;6.20;;;2.40;;
46719;SDS011;32452;51.382;-0.002;2023-08-06T07:03:25;6.63;;;2.35;;
46719;SDS011;32452;51.382;-0.002;2023-08-06T07:06:11;4.07;;;2.00;;
46719;SDS011;32452;51.382;-0.002;2023-08-06T07:08:57;5.70;;;2.42;;
46719;SDS011;32452;51.382;-0.002;2023-08-06T07:11:43;6.30;;;2.20;;
46719;SDS011;32452;51.382;-0.002;2023-08-06T07:14:29;7.88;;;2.13;;
46719;SDS011;32452;51.382;-0.002;2023-08-06T07:17:14;4.75;;;2.17;;
46719;SDS011;32452;51.382;-0.002;2023-08-06T07:20:00;4.18;;;2.55;;
46719;SDS011;32452;51.382;-0.002;2023-08-06T07:22:46;7.50;;;2.22;;
46719;SDS011;32452;51.382;-0.002;2023-08-06T07:25:31;3.53;;;2.15;;
46719;SDS011;32452;51.382;-0.002;2023-08-06T07:28:17;4.47;;;2.38;;
46719;SDS011;32452;51.382;-0.002;2023-08-06T07:31:03;6.05;;;2.28;;
46719;SDS011;32452;51.382;-0.002;2023-08-06T07:33:53;8.10;;;2.35;;
46719;SDS011;32452;51.382;-0.002;2023-08-06T07:36:38;4.40;;;2.00;;
46719;SDS011;32452;51.382;-0.002;2023-08-06T07:39:24;4.68;;;2.55;;
46719;SDS011;32452;51.382;-0.002;2023-08-06T07:42:10;4.35;;;2.10;;
46719;SDS011;32452;51.382;-0.002;2023-08-06T07:44:56;3.85;;;2.00;;
46719;SDS011;32452;51.382;-0.002;2023-08-06T07:47:43;8.02;;;2.47;;
46719;SDS011;32452;51.382;-0.002;2023-08-06T07:50:29;5.97;;;1.67;;
46719;SDS011;32452;51.382;-0.002;2023-08-06T07:53:14;4.75;;;1.90;;
46719;SDS011;32452;51.382;-0.002;2023-08-06T07:56:00;4.15;;;2.22;;
46719;SDS011;32452;51.382;-0.002;2023-08-06T07:58:47;4.75;;;2.08;;
46719;SDS011;32452;51.382;-0.002;2023-08-06T08:01:32;5.25;;;2.25;;
46719;SDS011;32452;51.382;-0.002;2023-08-06T08:04:18;4.13;;;2.20;;
46719;SDS011;32452;51.382;-0.002;2023-08-06T08:07:07;4.88;;;1.80;;
46719;SDS011;32452;51.382;-0.002;2023-08-06T08:09:52;8.18;;;2.22;;
46719;SDS011;32452;51.382;-0.002;2023-08-06T08:12:38;3.15;;;1.55;;
46719;SDS011;32452;51.382;-0.002;2023-08-06T08:15:28;6.55;;;2.20;;
46719;SDS011;32452;51.382;-0.002;2023-08-06T08:18:14;8.38;;;2.35;;
46719;SDS011;32452;51.382;-0.002;2023-08-06T08:20:59;5.60;;;1.70;;
46719;SDS011;32452;51.382;-0.002;2023-08-06T08:23:45;5.63;;;2.20;;
46719;SDS011;32452;51.382;-0.002;2023-08-06T08:26:31;4.13;;;1.67;;
46719;SDS011;32452;51.382;-0.002;2023-08-06T08:29:16;4.10;;;1.52;;
46719;SDS011;32452;51.382;-0.002;2023-08-06T08:32:02;3.08;;;1.65;;
46719;SDS011;32452;51.382;-0.002;2023-08-06T08:34:47;5.93;;;2.25;;
46719;SDS011;32452;51.382;-0.002;2023-08-06T08:37:33;3.92;;;1.83;;
46719;SDS011;32452;51.382;-0.002;2023-08-06T08:40:21;4.05;;;1.98;;
46719;SDS011;32452;51.382;-0.002;2023-08-06T08:43:17;4.18;;;2.03;;
46719;SDS011;32452;51.382;-0.002;2023-08-06T08:46:09;2.80;;;1.65;;
46719;SDS011;32452;51.382;-0.002;2023-08-06T08:48:56;5.88;;;1.80;;
46719;SDS011;32452;51.382;-0.002;2023-08-06T08:51:43;3.35;;;1.63;;
46719;SDS011;32452;51.382;-0.002;2023-08-06T08:54:30;3.13;;;1.73;;
46719;SDS011;32452;51.382;-0.002;2023-08-06T08:57:17;3.60;;;2.28;;
46719;SDS011;32452;51.382;-0.002;2023-08-06T09:00:03;4.22;;;1.52;;
46719;SDS011;32452;51.382;-0.002;2023-08-06T09:02:49;5.53;;;1.38;;
46719;SDS011;32452;51.382;-0.002;2023-08-06T09:05:36;2.45;;;1.40;;
46719;SDS011;32452;51.382;-0.002;2023-08-06T09:08:26;5.10;;;1.63;;
46719;SDS011;32452;51.382;-0.002;2023-08-06T09:11:15;2.80;;;1.40;;
46719;SDS011;32452;51.382;-0.002;2023-08-06T09:14:02;3.60;;;1.55;;
46719;SDS011;32452;51.382;-0.002;2023-08-06T09:16:48;2.45;;;1.40;;
46719;SDS011;32452;51.382;-0.002;2023-08-06T09:19:33;2.35;;;1.50;;
46719;SDS011;32452;51.382;-0.002;2023-08-06T09:22:19;3.10;;;1.70;;
46719;SDS011;32452;51.382;-0.002;2023-08-06T09:25:06;3.88;;;1.48;;
46719;SDS011;32452;51.382;-0.002;2023-08-06T09:27:54;3.25;;;2.10;;
46719;SDS011;32452;51.382;-0.002;2023-08-06T09:30:40;2.70;;;1.60;;
46719;SDS011;32452;51.382;-0.002;2023-08-06T09:33:25;4.43;;;1.52;;
46719;SDS011;32452;51.382;-0.002;2023-08-06T09:36:14;3.17;;;1.70;;
46719;SDS011;32452;51.382;-0.002;2023-08-06T09:39:00;5.03;;;1.80;;
46719;SDS011;32452;51.382;-0.002;2023-08-06T09:41:46;5.20;;;1.92;;
46719;SDS011;32452;51.382;-0.002;2023-08-06T09:44:33;3.33;;;1.55;;
46719;SDS011;32452;51.382;-0.002;2023-08-06T09:47:20;6.32;;;1.50;;
46719;SDS011;32452;51.382;-0.002;2023-08-06T09:50:17;3.97;;;1.80;;
46719;SDS011;32452;51.382;-0.002;2023-08-06T09:53:04;5.35;;;1.90;;
46719;SDS011;32452;51.382;-0.002;2023-08-06T09:55:50;2.78;;;1.83;;
46719;SDS011;32452;51.382;-0.002;2023-08-06T09:58:36;3.70;;;1.45;;
46719;SDS011;32452;51.382;-0.002;2023-08-06T10:01:26;2.92;;;1.58;;
46719;SDS011;32452;51.382;-0.002;2023-08-06T10:04:12;3.10;;;1.27;;
46719;SDS011;32452;51.382;-0.002;2023-08-06T10:07:08;5.35;;;2.38;;
46719;SDS011;32452;51.382;-0.002;2023-08-06T10:09:54;4.85;;;1.50;;
46719;SDS011;32452;51.382;-0.002;2023-08-06T10:12:40;4.90;;;1.50;;
46719;SDS011;32452;51.382;-0.002;2023-08-06T10:15:33;3.45;;;1.52;;
46719;SDS011;32452;51.382;-0.002;2023-08-06T10:18:21;2.78;;;1.27;;
46719;SDS011;32452;51.382;-0.002;2023-08-06T10:21:08;3.42;;;1.85;;
46719;SDS011;32452;51.382;-0.002;2023-08-06T10:23:54;2.38;;;1.35;;
46719;SDS011;32452;51.382;-0.002;2023-08-06T10:26:40;4.03;;;1.60;;
46719;SDS011;32452;51.382;-0.002;2023-08-06T10:29:35;3.85;;;1.80;;
46719;SDS011;32452;51.382;-0.002;2023-08-06T10:32:41;3.17;;;1.77;;
46719;SDS011;32452;51.382;-0.002;2023-08-06T10:35:38;4.97;;;1.92;;
46719;SDS011;32452;51.382;-0.002;2023-08-06T10:38:29;3.25;;;1.67;;
46719;SDS011;32452;51.382;-0.002;2023-08-06T10:41:23;4.53;;;1.85;;
46719;SDS011;32452;51.382;-0.002;2023-08-06T10:44:14;5.18;;;1.50;;
46719;SDS011;32452;51.382;-0.002;2023-08-06T10:47:25;5.80;;;1.92;;
46719;SDS011;32452;51.382;-0.002;2023-08-06T10:50:16;6.15;;;2.10;;
46719;SDS011;32452;51.382;-0.002;2023-08-06T10:53:03;3.10;;;1.58;;
46719;SDS011;32452;51.382;-0.002;2023-08-06T10:55:52;4.97;;;2.03;;
46719;SDS011;32452;51.382;-0.002;2023-08-06T10:58:38;4.80;;;1.88;;
46719;SDS011;32452;51.382;-0.002;2023-08-06T11:01:24;4.82;;;2.13;;
46719;SDS011;32452;51.382;-0.002;2023-08-06T11:04:15;4.13;;;1.80;;
46719;SDS011;32452;51.382;-0.002;2023-08-06T11:07:02;3.63;;;1.58;;
46719;SDS011;32452;51.382;-0.002;2023-08-06T11:09:49;4.07;;;1.60;;
46719;SDS011;32452;51.382;-0.002;2023-08-06T11:12:36;5.72;;;2.53;;
46719;SDS011;32452;51.382;-0.002;2023-08-06T11:15:23;3.35;;;1.60;;
46719;SDS011;32452;51.382;-0.002;2023-08-06T11:18:08;7.32;;;1.70;;
46719;SDS011;32452;51.382;-0.002;2023-08-06T11:20:55;4.00;;;1.67;;
46719;SDS011;32452;51.382;-0.002;2023-08-06T11:23:45;3.35;;;1.75;;
46719;SDS011;32452;51.382;-0.002;2023-08-06T11:26:31;4.53;;;1.80;;
46719;SDS011;32452;51.382;-0.002;2023-08-06T11:29:18;4.72;;;2.05;;
46719;SDS011;32452;51.382;-0.002;2023-08-06T11:32:04;5.15;;;2.10;;
46719;SDS011;32452;51.382;-0.002;2023-08-06T11:34:50;3.30;;;1.85;;
46719;SDS011;32452;51.382;-0.002;2023-08-06T11:37:38;3.65;;;1.70;;
46719;SDS011;32452;51.382;-0.002;2023-08-06T11:40:28;6.82;;;2.60;;
46719;SDS011;32452;51.382;-0.002;2023-08-06T11:43:13;5.57;;;2.30;;
46719;SDS011;32452;51.382;-0.002;2023-08-06T11:45:59;4.45;;;1.95;;
46719;SDS011;32452;51.382;-0.002;2023-08-06T11:48:55;5.68;;;2.25;;
46719;SDS011;32452;51.382;-0.002;2023-08-06T11:51:41;4.40;;;1.73;;
46719;SDS011;32452;51.382;-0.002;2023-08-06T11:54:31;2.47;;;1.58;;
46719;SDS011;32452;51.382;-0.002;2023-08-06T11:57:19;4.72;;;1.80;;
46719;SDS011;32452;51.382;-0.002;2023-08-06T12:00:12;5.78;;;1.90;;
46719;SDS011;32452;51.382;-0.002;2023-08-06T12:02:59;4.95;;;1.58;;
46719;SDS011;32452;51.382;-0.002;2023-08-06T12:05:44;3.15;;;1.58;;
46719;SDS011;32452;51.382;-0.002;2023-08-06T12:08:31;5.53;;;1.83;;
46719;SDS011;32452;51.382;-0.002;2023-08-06T12:11:17;3.70;;;1.20;;
46719;SDS011;32452;51.382;-0.002;2023-08-06T12:14:02;4.97;;;1.75;;
46719;SDS011;32452;51.382;-0.002;2023-08-06T12:16:48;5.03;;;2.58;;
46719;SDS011;32452;51.382;-0.002;2023-08-06T12:19:34;3.13;;;1.60;;
46719;SDS011;32452;51.382;-0.002;2023-08-06T12:22:19;5.47;;;1.55;;
46719;SDS011;32452;51.382;-0.002;2023-08-06T12:25:09;4.97;;;2.38;;
46719;SDS011;32452;51.382;-0.002;2023-08-06T12:27:59;4.65;;;1.40;;
46719;SDS011;32452;51.382;-0.002;2023-08-06T12:30:44;2.20;;;1.40;;
46719;SDS011;32452;51.382;-0.002;2023-08-06T12:33:30;4.32;;;1.55;;
46719;SDS011;32452;51.382;-0.002;2023-08-06T12:36:16;1.73;;;0.95;;
46719;SDS011;32452;51.382;-0.002;2023-08-06T12:39:01;2.65;;;1.45;;
46719;SDS011;32452;51.382;-0.002;2023-08-06T12:41:47;3.88;;;1.70;;
46719;SDS011;32452;51.382;-0.002;2023-08-06T12:44:34;2.38;;;1.40;;
46719;SDS011;32452;51.382;-0.002;2023-08-06T12:47:19;4.32;;;1.33;;
46719;SDS011;32452;51.382;-0.002;2023-08-06T12:50:05;5.05;;;1.75;;
46719;SDS011;32452;51.382;-0.002;2023-08-06T12:52:53;2.03;;;1.30;;
46719;SDS011;32452;51.382;-0.002;2023-08-06T12:55:38;3.47;;;1.60;;
46719;SDS011;32452;51.382;-0.002;2023-08-06T12:58:25;2.58;;;1.48;;
46719;SDS011;32452;51.382;-0.002;2023-08-06T13:01:11;3.20;;;1.80;;
46719;SDS011;32452;51.382;-0.002;2023-08-06T13:03:57;2.53;;;1.30;;
46719;SDS011;32452;51.382;-0.002;2023-08-06T13:07:03;1.42;;;1.30;;
46719;SDS011;32452;51.382;-0.002;2023-08-06T13:09:52;3.40;;;1.70;;
46719;SDS011;32452;51.382;-0.002;2023-08-06T13:12:38;2.97;;;1.50;;
46719;SDS011;32452;51.382;-0.002;2023-08-06T13:15:24;3.05;;;1.50;;
46719;SDS011;32452;51.382;-0.002;2023-08-06T13:18:10;3.30;;;1.73;;
46719;SDS011;32452;51.382;-0.002;2023-08-06T13:20:55;3.50;;;1.73;;
46719;SDS011;32452;51.382;-0.002;2023-08-06T13:23:41;3.13;;;1.77;;
46719;SDS011;32452;51.382;-0.002;2023-08-06T13:26:27;3.50;;;1.80;;
46719;SDS011;32452;51.382;-0.002;2023-08-06T13:29:14;4.22;;;1.70;;
46719;SDS011;32452;51.382;-0.002;2023-08-06T13:31:59;3.33;;;1.58;;
46719;SDS011;32452;51.382;-0.002;2023-08-06T13:34:45;3.38;;;1.75;;
46719;SDS011;32452;51.382;-0.002;2023-08-06T13:37:31;2.70;;;1.40;;
46719;SDS011;32452;51.382;-0.002;2023-08-06T13:40:16;2.03;;;1.40;;
46719;SDS011;32452;51.382;-0.002;2023-08-06T13:43:02;4.05;;;1.80;;
46719;SDS011;32452;51.382;-0.002;2023-08-06T13:45:47;2.17;;;1.13;;
46719;SDS011;32452;51.382;-0.002;2023-08-06T13:48:33;2.10;;;1.10;;
46719;SDS011;32452;51.382;-0.002;2023-08-06T13:51:18;3.28;;;0.95;;
46719;SDS011;32452;51.382;-0.002;2023-08-06T13:54:04;1.20;;;1.00;;
46719;SDS011;32452;51.382;-0.002;2023-08-06T13:56:50;3.53;;;1.40;;
46719;SDS011;32452;51.382;-0.002;2023-08-06T13:59:37;2.15;;;1.08;;
46719;SDS011;32452;51.382;-0.002;2023-08-06T14:02:23;2.75;;;1.20;;
46719;SDS011;32452;51.382;-0.002;2023-08-06T14:05:09;1.52;;;0.95;;
46719;SDS011;32452;51.382;-0.002;2023-08-06T14:07:55;1.75;;;1.13;;
46719;SDS011;32452;51.382;-0.002;2023-08-06T14:10:40;2.15;;;1.23;;
46719;SDS011;32452;51.382;-0.002;2023-08-06T14:13:26;3.70;;;1.35;;
46719;SDS011;32452;51.382;-0.002;2023-08-06T14:16:12;2.60;;;1.30;;
46719;SDS011;32452;51.382;-0.002;2023-08-06T14:18:57;4.15;;;1.00;;
46719;SDS011;32452;51.382;-0.002;2023-08-06T14:21:43;1.75;;;0.95;;
46719;SDS011;32452;51.382;-0.002;2023-08-06T14:24:28;1.13;;;1.02;;
46719;SDS011;32452;51.382;-0.002;2023-08-06T14:27:14;1.88;;;1.08;;
46719;SDS011;32452;51.382;-0.002;2023-08-06T14:30:00;1.50;;;0.95;;
46719;SDS011;32452;51.382;-0.002;2023-08-06T14:32:47;2.20;;;1.00;;
46719;SDS011;32452;51.382;-0.002;2023-08-06T14:35:33;2.78;;;0.90;;
46719;SDS011;32452;51.382;-0.002;2023-08-06T14:38:18;1.88;;;0.77;;
46719;SDS011;32452;51.382;-0.002;2023-08-06T14:41:04;0.70;;;0.65;;
46719;SDS011;32452;51.382;-0.002;2023-08-06T14:43:50;1.38;;;0.75;;
46719;SDS011;32452;51.382;-0.002;2023-08-06T14:46:35;2.38;;;1.10;;
46719;SDS011;32452;51.382;-0.002;2023-08-06T14:49:21;3.30;;;1.10;;
46719;SDS011;32452;51.382;-0.002;2023-08-06T14:52:07;2.00;;;0.80;;
46719;SDS011;32452;51.382;-0.002;2023-08-06T14:54:52;2.28;;;1.05;;
46719;SDS011;32452;51.382;-0.002;2023-08-06T14:57:40;2.10;;;1.00;;
46719;SDS011;32452;51.382;-0.002;2023-08-06T15:00:25;2.08;;;1.27;;
46719;SDS011;32452;51.382;-0.002;2023-08-06T15:03:11;1.80;;;1.08;;
46719;SDS011;32452;51.382;-0.002;2023-08-06T15:05:56;4.22;;;1.10;;
46719;SDS011;32452;51.382;-0.002;2023-08-06T15:08:42;2.65;;;1.10;;
46719;SDS011;32452;51.382;-0.002;2023-08-06T15:11:30;1.83;;;1.20;;
46719;SDS011;32452;51.382;-0.002;2023-08-06T15:14:16;1.23;;;0.80;;
46719;SDS011;32452;51.382;-0.002;2023-08-06T15:17:01;3.25;;;1.33;;
46719;SDS011;32452;51.382;-0.002;2023-08-06T15:19:47;2.35;;;1.17;;
46719;SDS011;32452;51.382;-0.002;2023-08-06T15:22:32;1.38;;;1.08;;
46719;SDS011;32452;51.382;-0.002;2023-08-06T15:25:18;2.42;;;0.98;;
46719;SDS011;32452;51.382;-0.002;2023-08-06T15:28:03;1.77;;;1.00;;
46719;SDS011;32452;51.382;-0.002;2023-08-06T15:30:50;2.88;;;1.17;;
46719;SDS011;32452;51.382;-0.002;2023-08-06T15:33:36;2.22;;;1.20;;
46719;SDS011;32452;51.382;-0.002;2023-08-06T15:36:22;2.05;;;0.90;;
46719;SDS011;32452;51.382;-0.002;2023-08-06T15:39:08;1.92;;;1.00;;
46719;SDS011;32452;51.382;-0.002;2023-08-06T15:41:53;1.73;;;1.02;;
46719;SDS011;32452;51.382;-0.002;2023-08-06T15:44:39;1.73;;;1.00;;
46719;SDS011;32452;51.382;-0.002;2023-08-06T15:47:24;2.30;;;1.00;;
46719;SDS011;32452;51.382;-0.002;2023-08-06T15:50:10;1.77;;;0.95;;
46719;SDS011;32452;51.382;-0.002;2023-08-06T15:52:56;2.08;;;0.80;;
46719;SDS011;32452;51.382;-0.002;2023-08-06T15:55:41;2.97;;;0.82;;
46719;SDS011;32452;51.382;-0.002;2023-08-06T15:58:27;1.15;;;1.00;;
46719;SDS011;32452;51.382;-0.002;2023-08-06T16:01:13;1.55;;;0.65;;
46719;SDS011;32452;51.382;-0.002;2023-08-06T16:03:59;1.45;;;1.00;;
46719;SDS011;32452;51.382;-0.002;2023-08-06T16:06:45;2.45;;;1.05;;
46719;SDS011;32452;51.382;-0.002;2023-08-06T16:09:30;1.90;;;1.00;;
46719;SDS011;32452;51.382;-0.002;2023-08-06T16:12:17;0.88;;;0.65;;
46719;SDS011;32452;51.382;-0.002;2023-08-06T16:15:04;3.55;;;0.95;;
46719;SDS011;32452;51.382;-0.002;2023-08-06T16:17:50;2.38;;;1.08;;
46719;SDS011;32452;51.382;-0.002;2023-08-06T16:20:40;1.10;;;0.90;;
46719;SDS011;32452;51.382;-0.002;2023-08-06T16:23:28;1.30;;;0.93;;
46719;SDS011;32452;51.382;-0.002;2023-08-06T16:26:13;2.97;;;1.00;;
46719;SDS011;32452;51.382;-0.002;2023-08-06T16:28:59;2.10;;;0.82;;
46719;SDS011;32452;51.382;-0.002;2023-08-06T16:31:44;0.93;;;0.80;;
46719;SDS011;32452;51.382;-0.002;2023-08-06T16:34:30;4.53;;;0.82;;
46719;SDS011;32452;51.382;-0.002;2023-08-06T16:37:16;4.07;;;1.27;;